createdAt,value
2019-03-28T00:02:05.330Z,5.15
2019-03-28T00:04:35.751Z,5.15
2019-03-28T00:07:06.085Z,5.11
2019-03-28T00:09:36.270Z,5.05
2019-03-28T00:12:06.572Z,5.07
2019-03-28T00:14:36.939Z,5.02
2019-03-28T00:17:07.307Z,4.96
2019-03-28T00:19:37.780Z,5.00
2019-03-28T00:22:08.082Z,4.95
2019-03-28T00:24:43.894Z,4.99
2019-03-28T00:27:14.046Z,4.93
2019-03-28T00:29:44.163Z,4.96
2019-03-28T00:32:14.257Z,4.84
2019-03-28T00:34:44.426Z,4.82
2019-03-28T00:37:14.516Z,4.77
2019-03-28T00:39:44.548Z,4.70
2019-03-28T00:42:23.205Z,4.69
2019-03-28T00:44:53.423Z,4.66
2019-03-28T00:47:23.440Z,4.64
2019-03-28T00:49:53.664Z,4.50
2019-03-28T00:52:23.773Z,4.51
2019-03-28T00:54:54.007Z,4.41
2019-03-28T00:57:25.542Z,4.35
2019-03-28T00:59:55.680Z,4.44
2019-03-28T01:02:26.149Z,4.37
2019-03-28T01:04:56.551Z,4.42
2019-03-28T01:07:26.893Z,4.49
2019-03-28T01:09:57.262Z,4.45
2019-03-28T01:12:27.662Z,4.57
2019-03-28T01:14:58.158Z,4.58
2019-03-28T01:17:28.561Z,4.56
2019-03-28T01:19:58.912Z,4.60
2019-03-28T01:22:29.291Z,4.58
2019-03-28T01:24:59.695Z,4.56
2019-03-28T01:27:30.164Z,4.52
2019-03-28T01:30:00.488Z,4.60
2019-03-28T01:32:30.965Z,4.58
2019-03-28T01:35:01.191Z,4.55
2019-03-28T01:37:31.205Z,4.65
2019-03-28T01:40:01.392Z,4.66
2019-03-28T01:42:32.734Z,4.71
2019-03-28T01:45:03.266Z,4.66
2019-03-28T01:47:33.312Z,4.66
2019-03-28T01:50:03.590Z,4.70
2019-03-28T01:52:34.004Z,4.74
2019-03-28T01:55:04.348Z,4.75
2019-03-28T01:57:34.480Z,4.65
2019-03-28T02:00:05.074Z,4.67
2019-03-28T02:02:35.445Z,4.44
2019-03-28T02:05:06.093Z,4.12
2019-03-28T02:07:36.373Z,3.88
2019-03-28T02:10:06.888Z,3.68
2019-03-28T02:12:37.320Z,3.41
2019-03-28T02:15:08.616Z,3.34
2019-03-28T02:17:38.900Z,3.36
2019-03-28T02:20:10.416Z,3.42
2019-03-28T02:22:40.946Z,3.23
2019-03-28T02:25:12.762Z,3.01
2019-03-28T02:27:42.863Z,3.02
2019-03-28T02:30:13.250Z,2.92
2019-03-28T02:32:43.313Z,2.80
2019-03-28T02:35:13.574Z,2.80
2019-03-28T02:37:43.660Z,2.68
2019-03-28T02:40:13.967Z,2.65
2019-03-28T02:42:44.011Z,2.57
2019-03-28T02:45:14.157Z,2.52
2019-03-28T02:47:44.193Z,2.60
2019-03-28T02:50:14.300Z,2.63
2019-03-28T02:52:45.309Z,2.66
2019-03-28T02:55:15.324Z,2.71
2019-03-28T02:57:45.335Z,2.81
2019-03-28T03:00:15.494Z,2.70
2019-03-28T03:02:45.565Z,2.74
2019-03-28T03:05:15.697Z,2.76
2019-03-28T03:07:45.816Z,2.68
2019-03-28T03:10:15.968Z,2.66
2019-03-28T03:12:46.095Z,2.58
2019-03-28T03:15:16.308Z,2.44
2019-03-28T03:17:46.312Z,2.34
2019-03-28T03:20:17.501Z,2.38
2019-03-28T03:22:47.737Z,2.35
2019-03-28T03:25:18.170Z,2.14
2019-03-28T03:27:57.758Z,2.21
2019-03-28T03:30:20.458Z,2.18
2019-03-28T03:32:50.860Z,2.06
2019-03-28T03:35:21.125Z,1.96
2019-03-28T03:37:51.371Z,2.03
2019-03-28T03:40:21.484Z,1.96
2019-03-28T03:42:51.721Z,1.94
2019-03-28T03:45:21.776Z,1.92
2019-03-28T03:47:52.021Z,1.89
2019-03-28T03:50:26.731Z,1.94
2019-03-28T03:52:56.742Z,1.94
2019-03-28T03:55:27.198Z,1.91
2019-03-28T03:58:13.796Z,1.92
2019-03-28T04:00:33.295Z,1.93
2019-03-28T04:03:03.548Z,1.79
2019-03-28T04:05:33.855Z,1.75
2019-03-28T04:08:04.403Z,1.71
2019-03-28T04:10:34.625Z,1.65
2019-03-28T04:13:05.980Z,1.73
2019-03-28T04:15:37.902Z,1.81
2019-03-28T04:18:08.462Z,1.70
2019-03-28T04:20:39.078Z,1.68
2019-03-28T04:23:09.392Z,1.76
2019-03-28T04:25:39.972Z,1.89
2019-03-28T04:28:10.273Z,1.77
2019-03-28T04:30:40.557Z,1.96
2019-03-28T04:33:11.046Z,2.01
2019-03-28T04:35:41.329Z,2.20
2019-03-28T04:38:11.530Z,2.42
2019-03-28T04:40:41.977Z,2.46
2019-03-28T04:43:12.252Z,2.69
2019-03-28T04:45:42.544Z,2.89
2019-03-28T04:48:12.764Z,2.99
2019-03-28T04:50:43.234Z,2.97
2019-03-28T04:53:13.497Z,3.02
2019-03-28T04:55:43.904Z,3.11
2019-03-28T04:58:14.274Z,2.94
2019-03-28T05:00:44.564Z,2.97
2019-03-28T05:03:14.583Z,3.00
2019-03-28T05:05:44.812Z,2.76
2019-03-28T05:08:14.970Z,2.53
2019-03-28T05:10:45.250Z,2.55
2019-03-28T05:13:15.614Z,2.44
2019-03-28T05:15:45.806Z,2.49
2019-03-28T05:18:16.267Z,2.49
2019-03-28T05:20:46.629Z,2.63
2019-03-28T05:23:16.925Z,2.73
2019-03-28T05:25:47.190Z,2.76
2019-03-28T05:28:17.528Z,2.72
2019-03-28T05:30:47.753Z,2.65
2019-03-28T05:33:18.015Z,2.69
2019-03-28T05:35:48.301Z,2.58
2019-03-28T05:38:18.620Z,2.57
2019-03-28T05:40:49.036Z,2.69
2019-03-28T05:43:19.052Z,2.67
2019-03-28T05:45:49.087Z,2.72
2019-03-28T05:48:19.609Z,2.67
2019-03-28T05:50:50.236Z,2.70
2019-03-28T05:53:20.589Z,2.80
2019-03-28T05:55:50.893Z,3.00
2019-03-28T05:58:21.314Z,3.27
2019-03-28T06:00:51.670Z,3.56
2019-03-28T06:03:22.059Z,3.79
2019-03-28T06:05:52.452Z,3.99
2019-03-28T06:08:22.771Z,4.28
2019-03-28T06:10:53.066Z,4.49
2019-03-28T06:13:23.482Z,4.79
2019-03-28T06:15:53.895Z,5.03
2019-03-28T06:18:23.965Z,5.22
2019-03-28T06:20:54.305Z,5.32
2019-03-28T06:23:24.403Z,5.50
2019-03-28T06:25:54.676Z,5.67
2019-03-28T06:28:25.424Z,5.80
2019-03-28T06:30:56.119Z,6.07
2019-03-28T06:33:26.511Z,6.26
2019-03-28T06:35:56.837Z,6.43
2019-03-28T06:38:27.252Z,6.66
2019-03-28T06:40:57.663Z,6.82
2019-03-28T06:43:27.898Z,6.69
2019-03-28T06:45:58.279Z,6.75
2019-03-28T06:48:28.680Z,6.94
2019-03-28T06:50:59.242Z,6.93
2019-03-28T06:53:30.457Z,6.69
2019-03-28T06:56:02.041Z,6.76
2019-03-28T06:58:32.502Z,6.94
2019-03-28T07:01:03.015Z,7.15
2019-03-28T07:03:33.434Z,7.26
2019-03-28T07:06:03.844Z,7.15
2019-03-28T07:08:34.288Z,7.07
2019-03-28T07:11:04.912Z,6.82
2019-03-28T07:13:35.201Z,6.71
2019-03-28T07:16:05.753Z,6.72
2019-03-28T07:18:36.006Z,6.77
2019-03-28T07:21:07.350Z,6.99
2019-03-28T07:23:37.817Z,7.08
2019-03-28T07:26:08.169Z,7.11
2019-03-28T07:28:38.557Z,7.44
2019-03-28T07:31:08.938Z,7.75
2019-03-28T07:33:39.405Z,7.67
2019-03-28T07:36:09.808Z,7.97
2019-03-28T07:38:40.277Z,8.65
2019-03-28T07:41:10.474Z,8.79
2019-03-28T07:43:40.901Z,8.83
2019-03-28T07:46:11.316Z,8.92
2019-03-28T07:48:41.943Z,8.98
2019-03-28T07:51:12.183Z,9.24
2019-03-28T07:53:42.645Z,9.52
2019-03-28T07:56:13.003Z,9.52
2019-03-28T07:58:44.271Z,9.53
2019-03-28T08:01:17.821Z,9.42
2019-03-28T08:03:46.633Z,9.43
2019-03-28T08:06:17.161Z,9.06
2019-03-28T08:08:47.471Z,9.37
2019-03-28T08:11:17.853Z,9.79
2019-03-28T08:13:48.309Z,10.17
2019-03-28T08:16:18.395Z,10.35
2019-03-28T08:18:48.739Z,10.13
2019-03-28T08:21:18.870Z,10.34
2019-03-28T08:23:49.403Z,10.65
2019-03-28T08:26:20.120Z,10.70
2019-03-28T08:28:50.792Z,10.93
2019-03-28T08:31:21.027Z,10.58
2019-03-28T08:33:51.223Z,10.47
2019-03-28T08:36:21.970Z,10.64
2019-03-28T08:38:52.605Z,10.74
2019-03-28T08:41:22.950Z,11.20
2019-03-28T08:43:53.177Z,11.24
2019-03-28T08:46:23.515Z,11.40
2019-03-28T08:48:53.707Z,10.92
2019-03-28T08:51:27.114Z,10.92
2019-03-28T08:53:56.145Z,11.17
2019-03-28T08:56:26.510Z,11.67
2019-03-28T08:58:57.159Z,11.89
2019-03-28T09:01:27.815Z,11.97
2019-03-28T09:03:58.260Z,12.01
2019-03-28T09:06:28.572Z,11.66
2019-03-28T09:08:58.955Z,11.72
2019-03-28T09:11:29.344Z,11.49
2019-03-28T09:14:00.635Z,11.44
2019-03-28T09:16:31.226Z,11.57
2019-03-28T09:19:01.303Z,11.17
2019-03-28T09:21:31.594Z,11.24
2019-03-28T09:24:01.888Z,11.05
2019-03-28T09:26:32.155Z,11.09
2019-03-28T09:29:02.464Z,11.27
2019-03-28T09:31:32.961Z,11.37
2019-03-28T09:34:03.162Z,11.26
2019-03-28T09:36:33.627Z,11.25
2019-03-28T09:39:05.778Z,11.32
2019-03-28T09:41:36.437Z,11.13
2019-03-28T09:44:07.014Z,11.40
2019-03-28T09:46:37.450Z,11.29
2019-03-28T09:49:07.857Z,11.86
2019-03-28T09:51:38.227Z,12.18
2019-03-28T09:54:08.729Z,12.30
2019-03-28T09:56:39.094Z,11.80
2019-03-28T09:59:09.526Z,11.92
2019-03-28T10:01:39.852Z,12.29
2019-03-28T10:04:10.406Z,12.43
2019-03-28T10:06:40.763Z,12.48
2019-03-28T10:09:11.324Z,12.15
2019-03-28T10:11:41.809Z,12.12
2019-03-28T10:14:12.029Z,12.08
2019-03-28T10:16:42.698Z,12.34
2019-03-28T10:19:12.968Z,11.83
2019-03-28T10:21:43.476Z,12.05
2019-03-28T10:24:13.862Z,12.46
2019-03-28T10:26:44.079Z,12.67
2019-03-28T10:29:14.394Z,12.96
2019-03-28T10:31:44.868Z,12.81
2019-03-28T10:34:15.101Z,12.65
2019-03-28T10:36:45.689Z,12.55
2019-03-28T10:39:16.415Z,12.52
2019-03-28T10:41:46.723Z,12.32
2019-03-28T10:44:17.170Z,12.50
2019-03-28T10:46:49.367Z,13.13
2019-03-28T10:49:21.366Z,13.13
2019-03-28T10:51:53.247Z,13.27
2019-03-28T10:54:25.983Z,13.14
2019-03-28T10:56:58.181Z,13.30
2019-03-28T10:59:30.011Z,12.80
2019-03-28T11:02:01.589Z,12.81
2019-03-28T11:04:33.361Z,12.94
2019-03-28T11:07:05.358Z,12.90
2019-03-28T11:09:37.319Z,13.04
2019-03-28T11:12:09.166Z,13.13
2019-03-28T11:14:40.914Z,13.27
2019-03-28T11:17:12.518Z,13.43
2019-03-28T11:19:44.440Z,13.51
2019-03-28T11:22:16.358Z,13.31
2019-03-28T11:24:48.155Z,13.39
2019-03-28T11:27:19.938Z,13.73
2019-03-28T11:29:51.857Z,13.93
2019-03-28T11:32:24.028Z,14.00
2019-03-28T11:34:56.037Z,14.35
2019-03-28T11:37:31.235Z,14.33
2019-03-28T11:40:03.061Z,13.77
2019-03-28T11:42:34.818Z,13.84
2019-03-28T11:45:09.569Z,14.02
2019-03-28T11:47:42.164Z,13.91
2019-03-28T11:50:16.916Z,13.93
2019-03-28T11:52:47.793Z,13.75
2019-03-28T11:55:20.053Z,13.75
2019-03-28T11:57:52.148Z,14.12
2019-03-28T12:00:24.484Z,14.11
2019-03-28T12:02:56.522Z,13.51
2019-03-28T12:05:28.371Z,13.37
2019-03-28T12:08:00.125Z,13.18
2019-03-28T12:10:31.696Z,12.98
2019-03-28T12:13:03.798Z,12.91
2019-03-28T12:15:35.791Z,12.63
2019-03-28T12:18:07.811Z,12.73
2019-03-28T12:20:39.356Z,12.79
2019-03-28T12:23:11.043Z,12.69
2019-03-28T12:25:43.183Z,12.49
2019-03-28T12:28:15.016Z,12.54
2019-03-28T12:30:47.069Z,12.66
2019-03-28T12:33:19.398Z,12.28
2019-03-28T12:35:52.426Z,12.11
2019-03-28T12:38:24.365Z,12.15
2019-03-28T12:40:56.771Z,12.08
2019-03-28T12:43:28.929Z,12.08
2019-03-28T12:46:00.773Z,12.12
2019-03-28T12:48:32.965Z,11.94
2019-03-28T12:51:05.185Z,11.72
2019-03-28T12:53:37.245Z,11.61
2019-03-28T12:56:09.655Z,11.61
2019-03-28T12:58:41.623Z,11.90
2019-03-28T13:01:13.676Z,12.04
2019-03-28T13:03:46.600Z,12.01
2019-03-28T13:06:18.926Z,12.01
2019-03-28T13:08:51.166Z,12.03
2019-03-28T13:11:23.384Z,12.03
2019-03-28T13:13:55.630Z,12.18
2019-03-28T13:16:27.730Z,12.13
2019-03-28T13:19:00.758Z,12.11
2019-03-28T13:21:32.639Z,12.28
2019-03-28T13:24:07.694Z,12.38
2019-03-28T13:26:38.906Z,12.07
2019-03-28T13:29:11.127Z,12.15
2019-03-28T13:31:43.289Z,12.37
2019-03-28T13:34:14.870Z,12.34
2019-03-28T13:36:47.050Z,12.20
2019-03-28T13:39:19.105Z,12.08
2019-03-28T13:41:50.924Z,11.92
2019-03-28T13:44:23.030Z,11.92
2019-03-28T13:46:55.232Z,11.71
2019-03-28T13:49:27.361Z,11.71
2019-03-28T13:51:59.478Z,11.83
2019-03-28T13:54:31.566Z,11.83
2019-03-28T13:57:03.816Z,11.72
2019-03-28T13:59:36.058Z,11.76
2019-03-28T14:02:08.226Z,11.70
2019-03-28T14:04:40.039Z,11.48
2019-03-28T14:07:12.100Z,11.63
2019-03-28T14:09:47.853Z,11.85
2019-03-28T14:12:23.215Z,11.85
2019-03-28T14:14:53.893Z,11.94
2019-03-28T14:17:26.139Z,11.88
2019-03-28T14:19:58.593Z,11.74
2019-03-28T14:22:30.920Z,11.74
2019-03-28T14:25:03.236Z,11.82
2019-03-28T14:27:35.594Z,11.86
2019-03-28T14:30:09.871Z,11.92
2019-03-28T14:32:53.015Z,11.78
2019-03-28T14:35:17.143Z,11.82
2019-03-28T14:37:49.221Z,11.82
2019-03-28T14:40:21.497Z,11.89
2019-03-28T14:42:53.825Z,11.79
2019-03-28T14:45:25.932Z,11.59
2019-03-28T14:47:58.243Z,11.63
2019-03-28T14:50:40.997Z,11.73
2019-03-28T14:53:13.378Z,11.53
2019-03-28T14:55:45.981Z,11.51
2019-03-28T14:58:21.719Z,11.51
2019-03-28T15:00:53.694Z,11.47
2019-03-28T15:03:27.249Z,11.42
2019-03-28T15:06:00.966Z,11.47
2019-03-28T15:08:33.223Z,11.48
2019-03-28T15:11:05.342Z,11.50
2019-03-28T15:13:40.311Z,11.47
2019-03-28T15:16:11.434Z,11.58
2019-03-28T15:18:43.495Z,11.50
2019-03-28T15:21:16.841Z,11.31
2019-03-28T15:23:49.006Z,11.23
2019-03-28T15:26:21.149Z,11.23
2019-03-28T15:28:53.449Z,11.38
2019-03-28T15:31:25.665Z,11.30
2019-03-28T15:33:58.175Z,11.46
2019-03-28T15:36:30.384Z,11.46
2019-03-28T15:39:02.785Z,11.58
2019-03-28T15:41:35.720Z,11.66
2019-03-28T15:44:07.914Z,11.66
2019-03-28T15:46:39.972Z,11.51
2019-03-28T15:49:12.273Z,11.53
2019-03-28T15:51:44.488Z,11.27
2019-03-28T15:54:16.452Z,11.00
2019-03-28T15:56:48.423Z,10.98
2019-03-28T15:59:20.726Z,10.88
2019-03-28T16:01:53.601Z,10.77
2019-03-28T16:04:25.820Z,10.76
2019-03-28T16:06:58.011Z,10.86
2019-03-28T16:09:31.712Z,10.85
2019-03-28T16:12:03.486Z,10.75
2019-03-28T16:14:35.262Z,10.83
2019-03-28T16:17:07.451Z,10.78
2019-03-28T16:19:39.551Z,10.80
2019-03-28T16:22:11.792Z,10.69
2019-03-28T16:24:46.545Z,10.59
2019-03-28T16:27:17.928Z,10.68
2019-03-28T16:29:49.800Z,10.50
2019-03-28T16:32:21.588Z,10.52
2019-03-28T16:34:53.418Z,10.53
2019-03-28T16:37:25.350Z,10.64
2019-03-28T16:39:58.196Z,10.53
2019-03-28T16:42:30.337Z,10.45
2019-03-28T16:45:02.357Z,10.51
2019-03-28T16:47:34.494Z,10.49
2019-03-28T16:50:06.891Z,10.36
2019-03-28T16:52:39.942Z,10.45
2019-03-28T16:55:25.565Z,10.44
2019-03-28T16:57:46.118Z,10.29
2019-03-28T17:00:19.293Z,10.29
2019-03-28T17:02:51.457Z,10.25
2019-03-28T17:05:24.009Z,10.15
2019-03-28T17:07:56.524Z,10.03
2019-03-28T17:10:48.840Z,10.01
2019-03-28T17:13:21.028Z,10.00
2019-03-28T17:15:53.391Z,10.01
2019-03-28T17:18:25.269Z,9.95
2019-03-28T17:20:57.257Z,9.92
2019-03-28T17:23:29.108Z,9.95
2019-03-28T17:26:01.335Z,9.97
2019-03-28T17:28:33.375Z,9.87
2019-03-28T17:31:05.467Z,9.81
2019-03-28T17:33:37.484Z,9.72
2019-03-28T17:36:09.708Z,9.77
2019-03-28T17:38:41.856Z,9.85
2019-03-28T17:41:14.069Z,9.89
2019-03-28T17:43:46.036Z,9.90
2019-03-28T17:46:18.710Z,9.79
2019-03-28T17:48:50.534Z,9.71
2019-03-28T17:51:22.311Z,9.73
2019-03-28T17:53:56.137Z,9.70
2019-03-28T17:56:28.340Z,9.60
2019-03-28T17:59:01.283Z,9.49
2019-03-28T18:01:34.858Z,9.53
2019-03-28T18:04:06.887Z,9.44
2019-03-28T18:06:39.057Z,9.42
2019-03-28T18:09:11.861Z,9.40
2019-03-28T18:11:44.170Z,9.37
2019-03-28T18:14:15.965Z,9.35
2019-03-28T18:16:48.121Z,9.21
2019-03-28T18:19:20.032Z,9.19
2019-03-28T18:22:02.874Z,9.10
2019-03-28T18:24:26.196Z,9.04
2019-03-28T18:26:58.224Z,9.06
2019-03-28T18:29:30.397Z,8.96
2019-03-28T18:32:02.556Z,8.95
2019-03-28T18:34:35.543Z,8.84
2019-03-28T18:37:07.755Z,8.83
2019-03-28T18:39:39.894Z,8.84
2019-03-28T18:42:11.714Z,8.80
2019-03-28T18:44:43.560Z,8.77
2019-03-28T18:47:15.833Z,8.79
2019-03-28T18:49:47.686Z,8.92
2019-03-28T18:52:19.798Z,8.79
2019-03-28T18:54:51.865Z,8.74
2019-03-28T18:57:24.241Z,8.67
2019-03-28T18:59:56.180Z,8.76
2019-03-28T19:02:28.411Z,8.76
2019-03-28T19:05:01.596Z,8.83
2019-03-28T19:07:33.698Z,8.65
2019-03-28T19:10:06.289Z,8.64
2019-03-28T19:12:38.431Z,8.67
2019-03-28T19:15:11.390Z,8.61
2019-03-28T19:17:43.541Z,8.62
2019-03-28T19:20:15.932Z,8.55
2019-03-28T19:22:50.177Z,8.48
2019-03-28T19:25:21.888Z,8.44
2019-03-28T19:27:54.321Z,8.43
2019-03-28T19:30:33.751Z,8.45
2019-03-28T19:33:07.044Z,8.48
2019-03-28T19:35:41.119Z,8.33
2019-03-28T19:38:13.605Z,8.28
2019-03-28T19:40:45.760Z,8.18
2019-03-28T19:43:20.760Z,8.09
2019-03-28T19:45:51.808Z,8.27
2019-03-28T19:48:23.904Z,8.33
2019-03-28T19:50:55.800Z,8.19
2019-03-28T19:53:27.648Z,8.13
2019-03-28T19:55:59.741Z,8.13
2019-03-28T19:58:34.881Z,8.28
2019-03-28T20:01:05.782Z,8.24
2019-03-28T20:03:38.075Z,8.17
2019-03-28T20:06:21.664Z,8.19
2019-03-28T20:08:45.010Z,8.18
2019-03-28T20:11:17.261Z,8.03
2019-03-28T20:13:50.057Z,8.00
2019-03-28T20:16:22.267Z,8.00
2019-03-28T20:18:54.537Z,7.92
2019-03-28T20:21:26.767Z,7.84
2019-03-28T20:23:58.847Z,7.73
2019-03-28T20:26:30.881Z,7.79
2019-03-28T20:29:03.002Z,7.62
2019-03-28T20:31:35.181Z,7.55
2019-03-28T20:34:07.365Z,7.32
2019-03-28T20:36:43.734Z,7.10
2019-03-28T20:39:13.675Z,6.96
2019-03-28T20:41:45.623Z,6.92
2019-03-28T20:44:18.826Z,6.90
2019-03-28T20:46:51.087Z,6.96
2019-03-28T20:49:23.175Z,6.97
2019-03-28T20:51:55.337Z,7.03
2019-03-28T20:54:27.536Z,6.95
2019-03-28T20:56:59.620Z,6.81
2019-03-28T20:59:32.854Z,6.89
2019-03-28T21:02:05.112Z,6.89
2019-03-28T21:04:38.524Z,6.65
2019-03-28T21:07:10.618Z,6.58
2019-03-28T21:09:42.886Z,6.61
2019-03-28T21:12:15.075Z,6.60
2019-03-28T21:14:47.273Z,6.50
2019-03-28T21:17:19.296Z,6.52
2019-03-28T21:19:52.510Z,6.52
2019-03-28T21:22:24.708Z,6.51
2019-03-28T21:24:57.031Z,6.35
2019-03-28T21:27:29.834Z,6.30
2019-03-28T21:30:02.029Z,6.24
2019-03-28T21:32:34.233Z,6.09
2019-03-28T21:35:06.412Z,5.96
2019-03-28T21:37:38.417Z,5.55
2019-03-28T21:40:08.658Z,5.27
2019-03-28T21:42:39.052Z,5.29
2019-03-28T21:45:09.439Z,5.02
2019-03-28T21:47:39.676Z,4.95
2019-03-28T21:50:10.196Z,5.03
2019-03-28T21:52:40.954Z,4.99
2019-03-28T21:55:11.738Z,4.95
2019-03-28T21:57:42.618Z,4.95
2019-03-28T22:00:13.282Z,5.01
2019-03-28T22:02:43.326Z,4.96
2019-03-28T22:05:13.828Z,4.95
2019-03-28T22:07:44.282Z,4.91
2019-03-28T22:10:14.847Z,4.83
2019-03-28T22:12:45.036Z,4.70
2019-03-28T22:15:15.593Z,4.70
2019-03-28T22:17:45.801Z,4.80
2019-03-28T22:20:16.106Z,4.72
2019-03-28T22:22:46.441Z,4.61
2019-03-28T22:25:16.682Z,4.56
2019-03-28T22:27:47.520Z,4.62
2019-03-28T22:30:18.067Z,4.62
2019-03-28T22:32:48.273Z,4.60
2019-03-28T22:35:18.354Z,4.63
2019-03-28T22:37:48.586Z,4.63
2019-03-28T22:40:18.960Z,4.66
2019-03-28T22:42:49.039Z,4.69
2019-03-28T22:45:19.113Z,4.70
2019-03-28T22:47:49.338Z,4.63
2019-03-28T22:50:19.473Z,4.69
2019-03-28T22:52:49.576Z,4.65
2019-03-28T22:55:19.743Z,4.59
2019-03-28T22:57:49.890Z,4.59
2019-03-28T23:00:21.230Z,4.54
2019-03-28T23:02:52.939Z,4.51
2019-03-28T23:05:23.259Z,4.35
2019-03-28T23:07:53.538Z,4.34
2019-03-28T23:10:23.837Z,4.35
2019-03-28T23:12:54.109Z,4.20
2019-03-28T23:15:24.212Z,4.12
2019-03-28T23:17:54.651Z,4.05
2019-03-28T23:20:25.186Z,4.00
2019-03-28T23:22:55.551Z,3.91
2019-03-28T23:25:25.865Z,3.63
2019-03-28T23:27:56.263Z,3.61
2019-03-28T23:30:26.284Z,3.41
2019-03-28T23:32:56.385Z,3.48
2019-03-28T23:35:26.669Z,3.39
2019-03-28T23:37:57.076Z,3.46
2019-03-28T23:40:27.410Z,3.41
2019-03-28T23:42:58.088Z,3.30
2019-03-28T23:45:28.279Z,3.32
2019-03-28T23:47:58.587Z,3.31
2019-03-28T23:50:28.812Z,3.38
2019-03-28T23:52:58.920Z,3.31
2019-03-28T23:55:29.191Z,3.27
2019-03-28T23:57:59.360Z,3.16
